Time;durP1;ratioP1;P1;durP2;ratioP2;P2;SDS_P1;SDS_P2;PMS_P1;PMS_P2;Temp;Humidity;BMP_temperature;BMP_pressure;BME280_temperature;BME280_humidity;BME280_pressure;Samples;Min_cycle;Max_cycle;Signal;HPM_P1;HPM_P2
2023/10/11 00:01:35;;;;;;;;;;;;;;;1.20;78.35;100341.66;4982358;28;19921;-75
2023/10/11 00:04:03;;;;;;;;;;;;;;;1.24;79.00;100351.22;5002682;28;20043;-75
2023/10/11 00:06:33;;;;;;;;;;;;;;;1.29;78.96;100354.84;5016023;28;20318;-75
2023/10/11 00:08:59;;;;;;;;;;;;;;;1.37;78.86;100360.25;5018777;28;20011;-74
2023/10/11 00:11:27;;;;;;;;;;;;;;;1.48;79.13;100355.50;4983774;28;19964;-74
2023/10/11 00:13:54;;;;;;;;;;;;;;;1.61;78.92;100355.13;5017978;28;19917;-74
2023/10/11 00:16:21;;;;;;;;;;;;;;;1.78;79.41;100355.75;5017459;28;19928;-74
2023/10/11 00:18:49;;;;;;;;;;;;;;;1.95;79.11;100358.03;5016813;28;19932;-74
2023/10/11 00:21:17;;;;;;;;;;;;;;;2.11;79.64;100365.44;5017990;28;19928;-74
2023/10/11 00:23:45;;;;;;;;;;;;;;;2.23;79.90;100371.81;5001918;28;19917;-73
2023/10/11 00:26:14;;;;;;;;;;;;;;;2.33;79.59;100368.72;4971228;28;19925;-76
2023/10/11 00:28:49;;;;;;;;;;;;;;;2.42;79.59;100368.19;4997346;28;19928;-74
2023/10/11 00:31:24;;;;;;;;;;;;;;;2.51;79.88;100373.63;5002022;28;19960;-75
2023/10/11 00:33:55;;;;;;;;;;;;;;;2.39;79.15;100347.53;5019031;28;19917;-75
2023/10/11 00:36:24;;;;;;;;;;;;;;;2.59;79.78;100376.44;5016140;28;20060;-74
2023/10/11 00:38:51;;;;;;;;;;;;;;;2.66;79.76;100375.81;5018900;28;19928;-75
2023/10/11 00:41:25;;;;;;;;;;;;;;;2.75;79.76;100371.81;4998947;28;19921;-75
2023/10/11 00:43:53;;;;;;;;;;;;;;;2.79;79.69;100383.91;5014551;28;20402;-77
2023/10/11 00:46:24;;;;;;;;;;;;;;;2.85;79.81;100385.00;4984303;28;19917;-77
2023/10/11 00:48:54;;;;;;;;;;;;;;;2.84;80.18;100390.97;4986188;28;20087;-76
2023/10/11 00:51:29;;;;;;;;;;;;;;;2.84;79.89;100387.50;4981263;28;19944;-77
2023/10/11 00:53:57;;;;;;;;;;;;;;;2.86;79.91;100391.00;5015686;28;19921;-77
2023/10/11 00:56:31;;;;;;;;;;;;;;;2.88;79.95;100397.06;4984861;28;19944;-78
2023/10/11 00:58:59;;;;;;;;;;;;;;;2.91;79.80;100406.56;4998042;28;19984;-77
2023/10/11 01:01:25;;;;;;;;;;;;;;;2.97;79.95;100402.53;5033423;28;19928;-77
2023/10/11 01:04:04;;;;;;;;;;;;;;;3.02;79.82;100410.38;4980330;28;19924;-75
2023/10/11 01:06:34;;;;;;;;;;;;;;;3.04;80.12;100406.16;5032175;28;20009;-73
2023/10/11 01:09:03;;;;;;;;;;;;;;;3.01;79.75;100404.34;4996775;28;19918;-73
2023/10/11 01:11:29;;;;;;;;;;;;;;;3.00;79.75;100406.88;4968443;28;19928;-74
2023/10/11 01:13:55;;;;;;;;;;;;;;;2.97;79.89;100414.50;4998860;28;19976;-74
2023/10/11 01:16:26;;;;;;;;;;;;;;;2.95;79.97;100414.47;4994693;28;19921;-74
2023/10/11 01:18:52;;;;;;;;;;;;;;;2.92;79.67;100414.34;5012038;28;19984;-75
2023/10/11 01:21:19;;;;;;;;;;;;;;;2.91;79.83;100417.75;5016722;28;19917;-74
2023/10/11 01:23:45;;;;;;;;;;;;;;;2.73;79.96;100383.75;4997534;28;20016;-74
2023/10/11 01:26:11;;;;;;;;;;;;;;;2.96;80.34;100418.78;5017672;28;20004;-75
2023/10/11 01:28:38;;;;;;;;;;;;;;;2.93;79.84;100421.25;4975944;28;20354;-74
2023/10/11 01:31:10;;;;;;;;;;;;;;;2.77;79.36;100425.00;4996954;28;19917;-74
2023/10/11 01:33:41;;;;;;;;;;;;;;;2.68;79.59;100430.72;4981484;28;20002;-75
2023/10/11 01:36:12;;;;;;;;;;;;;;;2.56;79.25;100426.03;5013728;28;20461;-75
2023/10/11 01:38:48;;;;;;;;;;;;;;;2.48;79.51;100435.19;4997755;28;20359;-75
2023/10/11 01:41:17;;;;;;;;;;;;;;;2.40;79.57;100436.63;4998460;28;19922;-75
2023/10/11 01:43:46;;;;;;;;;;;;;;;2.29;79.45;100443.97;5032976;28;19958;-75
2023/10/11 01:46:18;;;;;;;;;;;;;;;2.27;79.73;100450.72;5013991;28;20019;-75
2023/10/11 01:48:50;;;;;;;;;;;;;;;2.21;79.15;100453.06;5015728;28;19923;-73
2023/10/11 01:51:20;;;;;;;;;;;;;;;2.18;79.61;100453.84;4996690;28;19967;-72
2023/10/11 01:53:47;;;;;;;;;;;;;;;2.19;79.60;100457.28;4975991;28;19928;-73
2023/10/11 01:56:13;;;;;;;;;;;;;;;2.20;79.59;100456.47;4997120;28;20062;-71
2023/10/11 01:58:45;;;;;;;;;;;;;;;2.06;79.26;100474.84;5014394;28;19925;-74
2023/10/11 02:01:21;;;;;;;;;;;;;;;1.92;78.85;100481.13;5030855;28;20352;-73
2023/10/11 02:03:51;;;;;;;;;;;;;;;1.83;79.28;100481.66;5013507;28;20007;-75
2023/10/11 02:06:18;;;;;;;;;;;;;;;1.78;78.84;100478.03;4995898;28;19917;-74
2023/10/11 02:08:44;;;;;;;;;;;;;;;1.74;79.03;100477.06;4996245;28;20035;-75
2023/10/11 02:11:09;;;;;;;;;;;;;;;1.64;79.22;100488.66;5000158;28;19956;-74
2023/10/11 02:13:39;;;;;;;;;;;;;;;1.56;79.05;100486.63;4997551;28;19921;-77
2023/10/11 02:16:10;;;;;;;;;;;;;;;1.43;78.84;100493.84;5031955;28;20376;-77
2023/10/11 02:18:36;;;;;;;;;;;;;;;1.31;79.25;100490.78;5015175;28;20039;-76
2023/10/11 02:21:06;;;;;;;;;;;;;;;1.23;79.19;100482.78;5033256;28;19940;-77
2023/10/11 02:23:42;;;;;;;;;;;;;;;1.16;79.32;100486.81;5015254;28;19917;-75
2023/10/11 02:26:16;;;;;;;;;;;;;;;1.11;79.49;100477.16;5017529;28;20027;-80
2023/10/11 02:28:43;;;;;;;;;;;;;;;1.05;79.49;100486.38;5018923;28;19957;-77
2023/10/11 02:31:20;;;;;;;;;;;;;;;1.00;78.86;100490.44;5022560;28;19917;-82
2023/10/11 02:33:46;;;;;;;;;;;;;;;0.97;79.16;100489.44;5023299;28;19917;-80
2023/10/11 02:36:18;;;;;;;;;;;;;;;0.93;79.17;100485.00;4987638;28;19976;-79
2023/10/11 02:38:47;;;;;;;;;;;;;;;0.88;79.65;100490.81;5023796;28;19989;-81
2023/10/11 02:41:25;;;;;;;;;;;;;;;0.82;78.82;100500.78;5031770;28;19925;-74
2023/10/11 02:43:52;;;;;;;;;;;;;;;0.79;79.11;100505.78;4976746;28;19944;-72
2023/10/11 02:46:23;;;;;;;;;;;;;;;0.74;79.71;100505.59;4979955;28;19921;-74
2023/10/11 02:48:49;;;;;;;;;;;;;;;0.70;79.63;100505.41;5014017;28;19993;-73
2023/10/11 02:51:24;;;;;;;;;;;;;;;0.66;78.98;100509.53;5012778;28;20337;-73
2023/10/11 02:53:52;;;;;;;;;;;;;;;0.65;79.66;100512.00;4978809;28;19918;-74
2023/10/11 02:56:18;;;;;;;;;;;;;;;0.62;79.69;100514.44;4967185;28;19918;-73
2023/10/11 02:58:44;;;;;;;;;;;;;;;0.60;79.37;100514.38;5013345;28;19921;-73
2023/10/11 03:01:20;;;;;;;;;;;;;;;0.59;79.71;100518.63;4999142;28;19925;-73
2023/10/11 03:03:49;;;;;;;;;;;;;;;0.55;79.10;100519.28;5030405;28;19917;-74
2023/10/11 03:06:15;;;;;;;;;;;;;;;0.55;79.85;100526.13;4982164;28;20370;-74
2023/10/11 03:08:44;;;;;;;;;;;;;;;0.56;79.62;100533.00;4979253;28;19928;-73
2023/10/11 03:11:15;;;;;;;;;;;;;;;0.53;79.46;100532.84;5013913;28;19932;-73
2023/10/11 03:13:43;;;;;;;;;;;;;;;0.52;79.64;100537.13;5015918;28;19917;-74
2023/10/11 03:16:17;;;;;;;;;;;;;;;0.50;79.83;100530.16;4978181;28;19959;-77
2023/10/11 03:18:46;;;;;;;;;;;;;;;0.48;79.98;100539.44;5028176;28;20016;-82
2023/10/11 03:21:21;;;;;;;;;;;;;;;0.44;79.80;100539.31;5013384;28;19917;-81
2023/10/11 03:23:55;;;;;;;;;;;;;;;0.42;80.00;100545.19;4997395;28;19917;-74
2023/10/11 03:26:31;;;;;;;;;;;;;;;0.41;79.06;100546.00;4996275;28;19940;-76
2023/10/11 03:28:58;;;;;;;;;;;;;;;0.39;79.93;100551.06;4995276;28;19925;-77
2023/10/11 03:31:33;;;;;;;;;;;;;;;0.40;79.71;100546.81;5012238;28;19939;-76
2023/10/11 03:34:00;;;;;;;;;;;;;;;0.39;80.24;100545.94;5008730;28;19925;-81
2023/10/11 03:36:43;;;;;;;;;;;;;;;0.37;79.53;100541.53;4970769;28;19917;-78
2023/10/11 03:39:09;;;;;;;;;;;;;;;0.34;79.75;100546.53;5010565;28;20186;-78
2023/10/11 03:41:44;;;;;;;;;;;;;;;0.33;80.25;100552.47;4996245;28;19926;-79
2023/10/11 03:44:10;;;;;;;;;;;;;;;0.31;80.13;100556.66;4995576;28;19921;-83
2023/10/11 03:46:36;;;;;;;;;;;;;;;0.30;80.19;100566.00;5017319;28;19971;-82
2023/10/11 03:49:32;;;;;;;;;;;;;;;0.28;80.09;100555.72;4994694;28;19979;-82
2023/10/11 03:51:48;;;;;;;;;;;;;;;0.26;80.05;100553.88;4981174;28;20182;-71
2023/10/11 03:54:36;;;;;;;;;;;;;;;0.26;80.11;100557.31;4977673;28;19917;-74
2023/10/11 03:57:04;;;;;;;;;;;;;;;0.32;79.96;100568.66;4996557;28;19925;-76
2023/10/11 03:59:38;;;;;;;;;;;;;;;0.34;80.46;100565.34;5027058;28;20335;-72
2023/10/11 04:02:04;;;;;;;;;;;;;;;0.37;79.54;100562.91;4992597;28;20346;-75
2023/10/11 04:04:30;;;;;;;;;;;;;;;0.42;79.81;100563.13;5026215;28;19936;-74
2023/10/11 04:07:05;;;;;;;;;;;;;;;0.48;80.26;100568.53;4982785;28;19925;-75
2023/10/11 04:12:00;;;;;;;;;;;;;;;0.73;80.52;100567.91;4977788;28;19952;-75
2023/10/11 04:14:51;;;;;;;;;;;;;;;0.93;80.53;100567.00;4979185;28;19944;-75
2023/10/11 04:19:51;;;;;;;;;;;;;;;2.45;80.80;100554.97;5013731;28;20382;-75
2023/10/11 04:22:23;;;;;;;;;;;;;;;3.61;81.36;100540.84;5029055;28;19964;-74
2023/10/11 04:24:53;;;;;;;;;;;;;;;4.70;81.46;100537.13;4996242;28;19968;-75
2023/10/11 04:29:50;;;;;;;;;;;;;;;6.62;80.73;100538.06;5031611;28;19981;-74
2023/10/11 04:32:35;;;;;;;;;;;;;;;7.44;80.35;100536.88;4997565;28;19922;-74
2023/10/11 04:35:22;;;;;;;;;;;;;;;7.78;78.87;100539.97;5015880;28;19917;-75
2023/10/11 04:38:01;;;;;;;;;;;;;;;7.47;79.04;100536.91;5013794;28;19921;-75
2023/10/11 04:43:06;;;;;;;;;;;;;;;7.24;79.00;100534.81;4998596;28;19921;-74
2023/10/11 04:45:43;;;;;;;;;;;;;;;8.12;79.97;100542.16;5013189;28;20371;-75
2023/10/11 04:48:19;;;;;;;;;;;;;;;9.22;79.95;100532.13;5029071;28;19964;-75
2023/10/11 04:50:48;;;;;;;;;;;;;;;10.39;79.07;100518.97;4999980;28;19917;-77
2023/10/11 04:53:17;;;;;;;;;;;;;;;11.26;78.08;100525.16;4997985;28;19952;-76
2023/10/11 04:55:46;;;;;;;;;;;;;;;11.99;77.55;100527.69;5012435;28;19917;-75
2023/10/11 05:01:01;;;;;;;;;;;;;;;13.81;75.74;100522.09;5014810;28;19963;-77
2023/10/11 05:03:37;;;;;;;;;;;;;;;14.56;74.85;100523.84;5000061;28;19917;-77
2023/10/11 05:06:16;;;;;;;;;;;;;;;14.64;73.16;100519.38;4994894;28;20291;-75
2023/10/11 05:08:51;;;;;;;;;;;;;;;14.45;72.90;100522.22;4995040;28;19918;-76
2023/10/11 05:11:39;;;;;;;;;;;;;;;14.23;71.88;100533.88;4966151;28;19923;-75
2023/10/11 05:14:56;;;;;;;;;;;;;;;14.07;70.67;100531.41;5028158;28;19917;-75
2023/10/11 05:16:59;;;;;;;;;;;;;;;13.86;71.04;100541.25;4998557;28;19972;-74
2023/10/11 05:19:34;;;;;;;;;;;;;;;14.17;71.58;100534.78;4994068;28;19948;-74
2023/10/11 05:22:03;;;;;;;;;;;;;;;14.65;70.69;100526.34;4980459;28;19948;-75
2023/10/11 05:27:25;;;;;;;;;;;;;;;15.83;69.77;100527.03;5014692;28;19917;-77
2023/10/11 05:30:32;;;;;;;;;;;;;;;16.92;68.93;100520.38;5014713;28;19960;-75
2023/10/11 05:33:30;;;;;;;;;;;;;;;17.91;67.20;100519.63;4993860;28;19932;-76
2023/10/11 05:52:56;;;;;;;;;;;;;;;23.77;54.88;100493.69;5015198;28;19921;-82
2023/10/11 05:55:26;;;;;;;;;;;;;;;23.72;54.62;100486.91;5016565;28;20272;-79
2023/10/11 05:57:54;;;;;;;;;;;;;;;23.86;54.50;100486.19;5011905;28;19928;-76
2023/10/11 06:00:25;;;;;;;;;;;;;;;24.28;53.60;100486.59;4995669;28;19963;-76
2023/10/11 06:03:00;;;;;;;;;;;;;;;24.76;52.91;100476.81;4977349;28;20280;-77
2023/10/11 06:05:39;;;;;;;;;;;;;;;24.60;51.97;100487.47;4995636;28;19987;-76
2023/10/11 06:08:15;;;;;;;;;;;;;;;24.61;51.56;100478.50;4993281;28;19917;-76
2023/10/11 06:10:41;;;;;;;;;;;;;;;24.88;52.16;100487.72;5028791;28;19924;-76
2023/10/11 06:13:14;;;;;;;;;;;;;;;25.00;51.15;100488.78;4993680;28;20260;-75
2023/10/11 06:15:47;;;;;;;;;;;;;;;25.36;51.05;100490.22;4984132;28;19917;-82
2023/10/11 06:21:48;;;;;;;;;;;;;;;26.28;49.60;100488.19;4972989;28;20282;-81
2023/10/11 06:24:22;;;;;;;;;;;;;;;26.80;49.73;100478.59;5024078;28;20032;-82
2023/10/11 06:29:19;;;;;;;;;;;;;;;26.94;47.24;100485.69;5015895;28;19921;-82
2023/10/11 06:31:45;;;;;;;;;;;;;;;26.73;47.20;100483.47;5011308;28;19928;-78
2023/10/11 06:36:51;;;;;;;;;;;;;;;26.72;45.59;100486.22;5010712;28;19917;-76
2023/10/11 06:40:07;;;;;;;;;;;;;;;27.19;45.25;100481.38;4997190;28;19917;-79
2023/10/11 06:42:31;;;;;;;;;;;;;;;27.92;44.45;100487.91;5014904;28;19922;-68
2023/10/11 06:44:59;;;;;;;;;;;;;;;27.94;41.99;100487.81;5015438;28;19918;-74
2023/10/11 06:47:26;;;;;;;;;;;;;;;27.99;42.36;100492.81;4984336;28;19917;-73
2023/10/11 06:50:10;;;;;;;;;;;;;;;28.21;41.56;100486.81;5015337;28;19940;-71
2023/10/11 06:52:43;;;;;;;;;;;;;;;28.25;40.89;100497.19;5000774;28;19922;-75
2023/10/11 06:55:14;;;;;;;;;;;;;;;27.99;40.06;100493.69;5017154;28;19932;-71
2023/10/11 06:57:50;;;;;;;;;;;;;;;27.67;40.44;100499.47;5000749;28;19925;-68
2023/10/11 07:00:28;;;;;;;;;;;;;;;27.74;39.90;100497.22;5016196;28;19993;-70
2023/10/11 07:05:49;;;;;;;;;;;;;;;28.03;38.66;100505.00;5015287;28;19918;-69
2023/10/11 07:08:20;;;;;;;;;;;;;;;28.08;38.63;100502.88;4984607;28;19940;-69
2023/10/11 07:14:00;;;;;;;;;;;;;;;28.06;37.55;100502.13;4996639;28;19917;-75
2023/10/11 07:16:28;;;;;;;;;;;;;;;28.47;37.94;100498.28;4976536;28;19918;-74
2023/10/11 07:18:56;;;;;;;;;;;;;;;29.25;37.35;100495.22;4965040;28;19921;-78
2023/10/11 07:22:12;;;;;;;;;;;;;;;29.38;37.09;100487.97;5025974;28;20364;-74
2023/10/11 07:24:33;;;;;;;;;;;;;;;29.73;36.12;100489.72;4997131;28;19924;-71
2023/10/11 07:27:08;;;;;;;;;;;;;;;29.50;36.78;100493.34;5023063;28;19984;-74
2023/10/11 07:29:45;;;;;;;;;;;;;;;30.28;36.50;100480.94;4997299;28;19924;-72
2023/10/11 07:32:11;;;;;;;;;;;;;;;31.07;35.78;100476.25;5002848;28;19924;-74
2023/10/11 07:34:47;;;;;;;;;;;;;;;31.89;34.87;100479.19;5003228;28;19921;-72
2023/10/11 07:37:29;;;;;;;;;;;;;;;32.11;33.86;100476.25;5003607;28;19917;-75
2023/10/11 07:40:20;;;;;;;;;;;;;;;32.57;33.95;100473.09;5004762;28;19917;-76
2023/10/11 07:42:46;;;;;;;;;;;;;;;31.88;33.25;100478.31;5011303;28;19941;-76
2023/10/11 07:45:29;;;;;;;;;;;;;;;30.68;34.30;100479.47;5039110;28;19921;-76
2023/10/11 07:47:55;;;;;;;;;;;;;;;30.08;34.76;100479.84;5028920;28;20777;-80
2023/10/11 07:53:25;;;;;;;;;;;;;;;30.95;33.53;100472.78;4990661;28;19917;-71
2023/10/11 07:55:51;;;;;;;;;;;;;;;31.37;33.57;100471.97;5035636;28;19917;-70
2023/10/11 07:58:36;;;;;;;;;;;;;;;;;;;;;
2023/10/11 08:01:31;;;;;;;;;;;;;;;30.50;33.86;100476.47;5023467;28;19928;-72
2023/10/11 08:04:00;;;;;;;;;;;;;;;30.70;33.94;100474.84;5017066;28;19936;-73
2023/10/11 08:06:44;;;;;;;;;;;;;;;31.48;33.30;100473.72;5000741;28;19960;-74
2023/10/11 08:09:18;;;;;;;;;;;;;;;31.75;32.48;100475.84;4988321;28;19952;-72
2023/10/11 08:11:45;;;;;;;;;;;;;;;31.08;32.85;100478.84;5021883;28;19917;-70
2023/10/11 08:14:29;;;;;;;;;;;;;;;30.74;33.52;100481.66;5005726;28;19928;-73
2023/10/11 08:16:56;;;;;;;;;;;;;;;30.65;33.51;100472.53;5017440;28;20027;-69
2023/10/11 08:19:25;;;;;;;;;;;;;;;30.88;33.16;100471.63;5000301;28;19918;-68
2023/10/11 08:21:57;;;;;;;;;;;;;;;30.47;33.51;100472.19;5016729;28;20383;-69
2023/10/11 08:24:30;;;;;;;;;;;;;;;29.69;34.25;100474.00;5015710;28;19897;-70
2023/10/11 08:27:18;;;;;;;;;;;;;;;29.78;33.67;100480.47;5033562;28;19921;-68
2023/10/11 08:29:54;;;;;;;;;;;;;;;30.28;33.07;100474.69;5003834;28;19944;-67
2023/10/11 08:32:31;;;;;;;;;;;;;;;30.34;33.10;100474.19;5033922;28;20020;-72
2023/10/11 08:34:57;;;;;;;;;;;;;;;29.92;32.34;100480.19;5027353;28;19964;-74
2023/10/11 08:37:25;;;;;;;;;;;;;;;29.28;33.08;100470.88;5005871;28;19939;-73
2023/10/11 08:39:54;;;;;;;;;;;;;;;28.51;32.11;100472.13;5001666;28;19971;-67
2023/10/11 08:42:22;;;;;;;;;;;;;;;28.54;34.09;100472.78;5001037;28;19952;-73
2023/10/11 08:44:50;;;;;;;;;;;;;;;28.88;32.46;100474.78;5003433;28;19917;-74
2023/10/11 08:47:19;;;;;;;;;;;;;;;29.36;32.47;100475.66;5017896;28;19921;-72
2023/10/11 08:49:51;;;;;;;;;;;;;;;27.98;33.09;100469.72;5016110;28;20016;-70
2023/10/11 08:52:28;;;;;;;;;;;;;;;28.00;33.48;100471.34;5018545;28;21092;-68
2023/10/11 08:54:59;;;;;;;;;;;;;;;28.20;33.39;100463.72;5019418;28;19960;-70
2023/10/11 08:57:25;;;;;;;;;;;;;;;27.73;33.05;100466.09;5015528;28;19917;-71
2023/10/11 08:59:58;;;;;;;;;;;;;;;27.52;32.79;100463.97;5017861;28;20238;-73
2023/10/11 09:02:33;;;;;;;;;;;;;;;27.47;33.59;100456.31;5015869;28;19918;-72
2023/10/11 09:05:12;;;;;;;;;;;;;;;28.13;33.18;100452.63;5014958;28;19940;-69
2023/10/11 09:07:45;;;;;;;;;;;;;;;28.52;33.27;100452.44;4998253;28;20012;-69
2023/10/11 09:10:26;;;;;;;;;;;;;;;28.39;32.55;100437.31;5015259;28;20266;-69
2023/10/11 09:12:58;;;;;;;;;;;;;;;27.65;32.89;100448.81;5034320;28;19917;-73
2023/10/11 09:15:42;;;;;;;;;;;;;;;27.22;33.29;100441.09;5028551;28;19955;-72
2023/10/11 09:18:18;;;;;;;;;;;;;;;27.47;32.27;100439.44;5033795;28;19922;-77
2023/10/11 09:20:55;;;;;;;;;;;;;;;27.62;32.28;100432.13;5033472;28;19917;-71
2023/10/11 09:23:46;;;;;;;;;;;;;;;27.63;32.41;100424.00;5017675;28;19928;-71
2023/10/11 09:26:32;;;;;;;;;;;;;;;27.66;32.39;100422.94;5015919;28;19917;-70
2023/10/11 09:29:04;;;;;;;;;;;;;;;27.64;34.00;100422.19;5010631;28;19925;-69
2023/10/11 09:31:31;;;;;;;;;;;;;;;27.36;32.80;100414.28;5010906;28;19922;-67
2023/10/11 09:34:19;;;;;;;;;;;;;;;27.01;33.19;100417.59;5013229;28;19921;-70
2023/10/11 09:36:51;;;;;;;;;;;;;;;26.43;32.73;100417.81;5007365;28;19925;-68
2023/10/11 09:39:18;;;;;;;;;;;;;;;25.52;32.78;100420.91;4995009;28;19975;-70
2023/10/11 09:41:45;;;;;;;;;;;;;;;23.99;33.13;100407.53;5027349;28;19925;-70
2023/10/11 09:44:12;;;;;;;;;;;;;;;23.72;34.33;100410.72;4997451;28;19928;-71
2023/10/11 09:46:43;;;;;;;;;;;;;;;23.45;34.18;100421.91;5011430;28;19918;-68
2023/10/11 09:49:15;;;;;;;;;;;;;;;23.03;35.23;100396.66;4979906;28;19921;-70
2023/10/11 09:51:44;;;;;;;;;;;;;;;23.10;35.01;100410.44;4980937;28;19956;-68
2023/10/11 09:54:12;;;;;;;;;;;;;;;23.02;34.68;100397.59;5009970;28;19928;-76
2023/10/11 09:56:51;;;;;;;;;;;;;;;22.31;34.18;100401.06;5017038;28;19924;-75
2023/10/11 09:59:22;;;;;;;;;;;;;;;21.19;36.29;100400.81;5019539;28;19948;-78
2023/10/11 10:02:12;;;;;;;;;;;;;;;19.82;37.71;100406.25;5035489;28;20355;-76
2023/10/11 10:04:54;;;;;;;;;;;;;;;18.57;37.69;100400.03;5036688;28;19963;-78
2023/10/11 10:07:25;;;;;;;;;;;;;;;17.59;38.92;100411.75;5037609;28;19921;-77
2023/10/11 10:09:59;;;;;;;;;;;;;;;17.05;39.85;100409.69;5041001;28;19917;-80
2023/10/11 10:12:40;;;;;;;;;;;;;;;16.43;40.18;100409.44;5027182;28;19921;-80
2023/10/11 10:15:24;;;;;;;;;;;;;;;15.84;40.72;100400.19;5006649;28;19918;-79
2023/10/11 10:18:03;;;;;;;;;;;;;;;15.24;40.51;100404.88;5026160;28;19918;-77
2023/10/11 10:20:46;;;;;;;;;;;;;;;14.94;41.36;100404.50;5021395;28;19917;-79
2023/10/11 10:23:14;;;;;;;;;;;;;;;14.65;41.61;100394.50;5019836;28;19968;-79
2023/10/11 10:25:50;;;;;;;;;;;;;;;14.34;42.32;100385.38;5031494;28;19988;-75
2023/10/11 10:28:32;;;;;;;;;;;;;;;14.07;41.90;100384.88;5018460;28;19921;-72
2023/10/11 10:31:12;;;;;;;;;;;;;;;14.00;42.77;100383.25;5016918;28;19921;-73
2023/10/11 10:33:40;;;;;;;;;;;;;;;13.84;42.72;100383.44;5002446;28;19928;-71
2023/10/11 10:42:02;;;;;;;;;;;;;;;13.78;43.57;100383.53;5017034;28;19901;-71
2023/10/11 10:44:30;;;;;;;;;;;;;;;13.38;43.72;100383.97;4985931;28;19981;-73
2023/10/11 10:47:18;;;;;;;;;;;;;;;13.22;44.45;100386.75;5035846;28;19897;-71
2023/10/11 10:49:51;;;;;;;;;;;;;;;13.14;44.59;100390.31;5002025;28;19901;-72
2023/10/11 10:52:17;;;;;;;;;;;;;;;12.83;44.71;100381.03;5014947;28;19921;-75
2023/10/11 10:55:03;;;;;;;;;;;;;;;12.55;44.50;100372.56;5015460;28;20343;-75
2023/10/11 10:57:37;;;;;;;;;;;;;;;12.27;44.62;100376.22;5022528;28;19917;-72
2023/10/11 11:00:25;;;;;;;;;;;;;;;12.02;44.85;100365.97;5018807;28;19917;-73
2023/10/11 11:02:51;;;;;;;;;;;;;;;11.74;45.29;100363.47;5035394;28;19909;-74
2023/10/11 11:05:24;;;;;;;;;;;;;;;11.66;45.41;100372.22;5017881;28;20211;-73
2023/10/11 11:07:49;;;;;;;;;;;;;;;11.64;45.54;100368.75;4999831;28;19921;-72
2023/10/11 11:10:17;;;;;;;;;;;;;;;11.64;45.34;100369.59;5037813;28;19918;-72
2023/10/11 11:12:44;;;;;;;;;;;;;;;11.52;45.88;100359.22;5003203;28;19928;-75
2023/10/11 11:15:36;;;;;;;;;;;;;;;11.37;45.70;100362.75;5022320;28;20258;-72
2023/10/11 11:18:02;;;;;;;;;;;;;;;11.26;45.96;100375.81;4983262;28;19932;-72
2023/10/11 11:20:40;;;;;;;;;;;;;;;11.30;46.50;100377.53;5018195;28;19920;-71
2023/10/11 11:23:22;;;;;;;;;;;;;;;11.18;45.53;100377.53;5001352;28;20512;-74
2023/10/11 11:25:52;;;;;;;;;;;;;;;11.06;45.97;100373.22;4970489;28;19917;-73
2023/10/11 11:28:25;;;;;;;;;;;;;;;10.97;46.14;100375.00;5017569;28;19925;-71
2023/10/11 11:34:08;;;;;;;;;;;;;;;11.04;46.94;100365.44;4998971;28;19917;-74
2023/10/11 11:36:40;;;;;;;;;;;;;;;10.91;46.41;100354.16;4997756;28;19924;-73
2023/10/11 11:40:18;;;;;;;;;;;;;;;10.85;46.93;100348.97;5014981;28;19917;-73
2023/10/11 11:42:09;;;;;;;;;;;;;;;10.71;46.84;100351.56;4984129;28;20575;-71
2023/10/11 11:44:45;;;;;;;;;;;;;;;10.57;47.01;100350.72;4996424;28;19917;-68
2023/10/11 11:47:11;;;;;;;;;;;;;;;10.54;46.93;100352.44;4994191;28;19964;-71
2023/10/11 11:49:37;;;;;;;;;;;;;;;10.49;46.60;100335.09;4997439;28;19918;-73
2023/10/11 11:52:03;;;;;;;;;;;;;;;10.46;46.96;100336.00;4996976;28;19953;-72
2023/10/11 11:54:31;;;;;;;;;;;;;;;10.58;47.54;100337.72;5000969;28;19917;-72
2023/10/11 11:57:07;;;;;;;;;;;;;;;10.62;47.24;100330.78;5013277;28;19953;-74
2023/10/11 11:59:33;;;;;;;;;;;;;;;10.61;47.71;100335.09;4999905;28;19989;-71
2023/10/11 12:02:16;;;;;;;;;;;;;;;10.64;47.60;100335.09;4998065;28;19917;-71
2023/10/11 12:04:47;;;;;;;;;;;;;;;10.59;47.59;100328.16;4981531;28;19952;-70
2023/10/11 12:07:13;;;;;;;;;;;;;;;10.51;47.28;100331.63;4968952;28;19926;-71
2023/10/11 12:09:42;;;;;;;;;;;;;;;10.43;47.51;100341.19;4978460;28;19927;-72
2023/10/11 12:12:10;;;;;;;;;;;;;;;10.36;47.46;100334.19;4979797;28;19949;-72
2023/10/11 12:14:37;;;;;;;;;;;;;;;10.35;47.97;100324.66;4996609;28;19936;-76
2023/10/11 12:17:10;;;;;;;;;;;;;;;10.33;47.69;100323.78;4999220;28;19944;-70
2023/10/11 12:19:37;;;;;;;;;;;;;;;10.28;47.53;100318.59;4977016;28;19949;-70
2023/10/11 12:22:04;;;;;;;;;;;;;;;10.14;47.35;100321.19;5013537;28;19925;-72
2023/10/11 12:24:35;;;;;;;;;;;;;;;10.08;47.91;100310.75;4976657;28;19969;-71
2023/10/11 12:27:01;;;;;;;;;;;;;;;10.05;47.94;100313.34;4963411;28;19922;-72
2023/10/11 12:29:30;;;;;;;;;;;;;;;9.95;47.62;100317.66;5013188;28;20017;-69
2023/10/11 12:32:01;;;;;;;;;;;;;;;9.85;48.33;100316.78;5014094;28;19922;-70
2023/10/11 12:34:27;;;;;;;;;;;;;;;9.79;48.05;100301.19;4983700;28;19917;-69
2023/10/11 12:36:55;;;;;;;;;;;;;;;9.73;48.62;100294.22;5000293;28;19973;-68
2023/10/11 12:39:24;;;;;;;;;;;;;;;9.60;48.57;100295.94;4970120;28;19917;-70
2023/10/11 12:42:05;;;;;;;;;;;;;;;9.46;48.60;100285.53;5000626;28;20075;-69
2023/10/11 12:44:35;;;;;;;;;;;;;;;9.40;49.15;100279.41;5008814;28;19917;-71
2023/10/11 12:47:01;;;;;;;;;;;;;;;9.33;49.29;100278.53;5020646;28;19937;-69
2023/10/11 12:49:33;;;;;;;;;;;;;;;9.27;49.29;100287.16;5010851;28;19948;-69
2023/10/11 12:51:59;;;;;;;;;;;;;;;9.21;49.95;100284.53;5013979;28;19917;-70
2023/10/11 12:54:25;;;;;;;;;;;;;;;9.16;49.67;100271.53;5024465;28;19917;-71
2023/10/11 12:56:56;;;;;;;;;;;;;;;9.08;49.95;100275.81;5019901;28;20387;-68
2023/10/11 12:59:28;;;;;;;;;;;;;;;8.99;49.84;100262.81;5021623;28;19917;-71
2023/10/11 13:01:55;;;;;;;;;;;;;;;8.92;50.10;100250.66;4972973;28;19923;-66
2023/10/11 13:04:24;;;;;;;;;;;;;;;8.88;50.15;100247.19;5014850;28;20168;-75
2023/10/11 13:06:59;;;;;;;;;;;;;;;8.83;50.28;100262.72;5009038;28;19983;-71
2023/10/11 13:09:35;;;;;;;;;;;;;;;8.79;50.15;100260.97;4996853;28;19971;-72
2023/10/11 13:12:03;;;;;;;;;;;;;;;8.59;50.02;100217.63;4996494;28;20253;-71
2023/10/11 13:14:31;;;;;;;;;;;;;;;8.86;50.34;100251.50;4990978;28;20213;-73
2023/10/11 13:17:11;;;;;;;;;;;;;;;8.93;50.36;100250.69;5001321;28;19921;-70
2023/10/11 13:19:38;;;;;;;;;;;;;;;8.95;50.36;100248.94;5002248;28;19964;-77
2023/10/11 13:22:13;;;;;;;;;;;;;;;8.95;50.63;100235.09;4990660;28;19917;-74
2023/10/11 13:24:41;;;;;;;;;;;;;;;8.85;50.93;100226.41;5002270;28;19928;-73
2023/10/11 13:27:22;;;;;;;;;;;;;;;8.78;50.86;100232.41;4987668;28;19902;-71
2023/10/11 13:29:51;;;;;;;;;;;;;;;8.67;51.07;100224.56;5000626;28;19924;-79
2023/10/11 13:32:25;;;;;;;;;;;;;;;8.57;51.46;100216.75;4989129;28;19944;-78
2023/10/11 13:35:05;;;;;;;;;;;;;;;8.48;51.41;100216.69;4988167;28;19976;-74
2023/10/11 13:37:34;;;;;;;;;;;;;;;8.36;51.37;100225.22;4969064;28;20538;-73
2023/10/11 13:40:05;;;;;;;;;;;;;;;8.31;51.30;100215.66;4999529;28;20051;-70
2023/10/11 13:42:37;;;;;;;;;;;;;;;8.26;51.54;100226.88;5004634;28;19901;-72
2023/10/11 13:45:32;;;;;;;;;;;;;;;8.20;51.73;100223.38;4984019;28;19917;-72
2023/10/11 13:48:05;;;;;;;;;;;;;;;8.10;51.75;100210.31;4968637;28;19984;-74
2023/10/11 13:50:50;;;;;;;;;;;;;;;8.03;52.10;100199.91;5000917;28;19988;-70
2023/10/11 13:53:43;;;;;;;;;;;;;;;7.95;52.18;100187.75;4983009;28;20024;-77
2023/10/11 13:56:20;;;;;;;;;;;;;;;7.89;52.34;100187.72;4985948;28;19941;-67
2023/10/11 13:58:52;;;;;;;;;;;;;;;7.86;52.28;100184.19;4990359;28;19908;-72
2023/10/11 14:09:54;;;;;;;;;;;;;;;7.55;52.76;100177.03;5001950;28;19917;-74
2023/10/11 14:12:24;;;;;;;;;;;;;;;7.51;52.85;100168.38;4988753;28;19917;-75
2023/10/11 14:14:53;;;;;;;;;;;;;;;7.46;52.99;100171.78;5003688;28;19957;-73
2023/10/11 14:17:24;;;;;;;;;;;;;;;7.39;53.08;100166.53;5002282;28;19961;-77
2023/10/11 14:20:00;;;;;;;;;;;;;;;7.36;53.24;100163.91;4967772;28;20382;-70